sensor_id;sensor_type;location;lat;lon;timestamp;P1;durP1;ratioP1;P2;durP2;ratioP2
38166;SDS011;23980;51.902;12.832;2022-09-03T00:00:20;4.78;;;1.10;;
38166;SDS011;23980;51.902;12.832;2022-09-03T00:05:40;1.67;;;0.80;;
38166;SDS011;23980;51.902;12.832;2022-09-03T00:16:23;4.45;;;1.30;;
38166;SDS011;23980;51.902;12.832;2022-09-03T00:26:52;1.52;;;0.65;;
38166;SDS011;23980;51.902;12.832;2022-09-03T00:37:40;3.28;;;1.42;;
38166;SDS011;23980;51.902;12.832;2022-09-03T00:42:51;1.95;;;0.77;;
38166;SDS011;23980;51.902;12.832;2022-09-03T01:04:24;1.20;;;0.80;;
38166;SDS011;23980;51.902;12.832;2022-09-03T01:09:49;6.20;;;0.88;;
38166;SDS011;23980;51.902;12.832;2022-09-03T01:15:00;4.22;;;1.20;;
38166;SDS011;23980;51.902;12.832;2022-09-03T01:31:37;2.28;;;1.00;;
38166;SDS011;23980;51.902;12.832;2022-09-03T01:36:47;4.15;;;1.65;;
38166;SDS011;23980;51.902;12.832;2022-09-03T01:48:03;2.92;;;1.40;;
38166;SDS011;23980;51.902;12.832;2022-09-03T01:53:36;3.58;;;1.45;;
38166;SDS011;23980;51.902;12.832;2022-09-03T01:58:59;3.17;;;1.20;;
38166;SDS011;23980;51.902;12.832;2022-09-03T02:04:20;4.13;;;1.63;;
38166;SDS011;23980;51.902;12.832;2022-09-03T02:09:25;3.85;;;1.75;;
38166;SDS011;23980;51.902;12.832;2022-09-03T02:14:26;3.13;;;1.30;;
38166;SDS011;23980;51.902;12.832;2022-09-03T02:19:29;5.50;;;2.10;;
38166;SDS011;23980;51.902;12.832;2022-09-03T02:24:30;5.90;;;1.70;;
38166;SDS011;23980;51.902;12.832;2022-09-03T02:29:31;3.00;;;1.38;;
38166;SDS011;23980;51.902;12.832;2022-09-03T02:34:34;3.00;;;1.40;;
38166;SDS011;23980;51.902;12.832;2022-09-03T02:39:35;4.22;;;1.15;;
38166;SDS011;23980;51.902;12.832;2022-09-03T02:44:40;3.28;;;1.30;;
38166;SDS011;23980;51.902;12.832;2022-09-03T02:49:47;31.37;;;3.00;;
38166;SDS011;23980;51.902;12.832;2022-09-03T02:54:48;5.68;;;1.70;;
38166;SDS011;23980;51.902;12.832;2022-09-03T02:59:48;4.75;;;1.35;;
38166;SDS011;23980;51.902;12.832;2022-09-03T03:05:04;5.90;;;1.33;;
38166;SDS011;23980;51.902;12.832;2022-09-03T03:10:07;2.47;;;1.35;;
38166;SDS011;23980;51.902;12.832;2022-09-03T03:15:08;2.08;;;1.13;;
38166;SDS011;23980;51.902;12.832;2022-09-03T03:20:09;6.60;;;2.55;;
38166;SDS011;23980;51.902;12.832;2022-09-03T03:25:10;2.88;;;1.52;;
38166;SDS011;23980;51.902;12.832;2022-09-03T03:30:11;3.63;;;1.48;;
38166;SDS011;23980;51.902;12.832;2022-09-03T03:35:12;3.70;;;1.85;;
38166;SDS011;23980;51.902;12.832;2022-09-03T03:40:12;5.75;;;1.73;;
38166;SDS011;23980;51.902;12.832;2022-09-03T03:45:17;2.80;;;1.35;;
38166;SDS011;23980;51.902;12.832;2022-09-03T03:50:18;4.28;;;1.70;;
38166;SDS011;23980;51.902;12.832;2022-09-03T03:55:26;6.70;;;1.48;;
38166;SDS011;23980;51.902;12.832;2022-09-03T04:00:27;4.50;;;1.48;;
38166;SDS011;23980;51.902;12.832;2022-09-03T04:05:39;2.92;;;1.80;;
38166;SDS011;23980;51.902;12.832;2022-09-03T04:10:39;6.32;;;1.90;;
38166;SDS011;23980;51.902;12.832;2022-09-03T04:15:40;4.03;;;1.98;;
38166;SDS011;23980;51.902;12.832;2022-09-03T04:20:50;6.63;;;1.83;;
38166;SDS011;23980;51.902;12.832;2022-09-03T04:25:51;5.72;;;1.88;;
38166;SDS011;23980;51.902;12.832;2022-09-03T04:30:52;9.73;;;3.58;;
38166;SDS011;23980;51.902;12.832;2022-09-03T04:36:00;6.50;;;1.45;;
38166;SDS011;23980;51.902;12.832;2022-09-03T04:41:16;5.80;;;1.73;;
38166;SDS011;23980;51.902;12.832;2022-09-03T04:46:19;6.30;;;2.00;;
38166;SDS011;23980;51.902;12.832;2022-09-03T04:51:21;3.78;;;1.80;;
38166;SDS011;23980;51.902;12.832;2022-09-03T04:56:39;3.72;;;1.80;;
38166;SDS011;23980;51.902;12.832;2022-09-03T05:01:41;3.90;;;1.67;;
38166;SDS011;23980;51.902;12.832;2022-09-03T05:06:42;3.72;;;1.88;;
38166;SDS011;23980;51.902;12.832;2022-09-03T05:11:44;2.85;;;1.30;;
38166;SDS011;23980;51.902;12.832;2022-09-03T05:16:45;3.92;;;1.25;;
38166;SDS011;23980;51.902;12.832;2022-09-03T05:22:01;5.10;;;1.40;;
38166;SDS011;23980;51.902;12.832;2022-09-03T05:27:02;5.50;;;1.83;;
38166;SDS011;23980;51.902;12.832;2022-09-03T05:32:03;9.70;;;2.17;;
38166;SDS011;23980;51.902;12.832;2022-09-03T05:37:03;5.90;;;1.70;;
38166;SDS011;23980;51.902;12.832;2022-09-03T05:42:10;3.85;;;1.42;;
38166;SDS011;23980;51.902;12.832;2022-09-03T05:47:11;3.72;;;1.50;;
38166;SDS011;23980;51.902;12.832;2022-09-03T05:52:13;8.55;;;1.88;;
38166;SDS011;23980;51.902;12.832;2022-09-03T05:57:13;6.88;;;1.90;;
38166;SDS011;23980;51.902;12.832;2022-09-03T06:02:22;3.70;;;1.63;;
38166;SDS011;23980;51.902;12.832;2022-09-03T06:07:23;7.32;;;2.67;;
38166;SDS011;23980;51.902;12.832;2022-09-03T06:12:24;12.85;;;1.85;;
38166;SDS011;23980;51.902;12.832;2022-09-03T06:17:25;5.82;;;1.67;;
38166;SDS011;23980;51.902;12.832;2022-09-03T06:22:26;6.55;;;1.58;;
38166;SDS011;23980;51.902;12.832;2022-09-03T06:27:29;6.55;;;2.13;;
38166;SDS011;23980;51.902;12.832;2022-09-03T06:32:31;6.07;;;1.40;;
38166;SDS011;23980;51.902;12.832;2022-09-03T06:37:37;2.88;;;1.25;;
38166;SDS011;23980;51.902;12.832;2022-09-03T06:42:53;3.63;;;1.38;;
38166;SDS011;23980;51.902;12.832;2022-09-03T06:48:01;4.97;;;1.90;;
38166;SDS011;23980;51.902;12.832;2022-09-03T06:53:02;4.20;;;1.60;;
38166;SDS011;23980;51.902;12.832;2022-09-03T06:58:02;6.88;;;1.60;;
38166;SDS011;23980;51.902;12.832;2022-09-03T07:03:03;3.50;;;1.55;;
38166;SDS011;23980;51.902;12.832;2022-09-03T07:08:04;8.50;;;1.38;;
38166;SDS011;23980;51.902;12.832;2022-09-03T07:13:12;7.53;;;2.30;;
38166;SDS011;23980;51.902;12.832;2022-09-03T07:18:13;7.20;;;1.52;;
38166;SDS011;23980;51.902;12.832;2022-09-03T07:23:16;5.93;;;1.92;;
38166;SDS011;23980;51.902;12.832;2022-09-03T07:28:17;2.88;;;1.10;;
38166;SDS011;23980;51.902;12.832;2022-09-03T07:33:35;6.80;;;1.40;;
38166;SDS011;23980;51.902;12.832;2022-09-03T07:38:41;12.52;;;2.00;;
38166;SDS011;23980;51.902;12.832;2022-09-03T07:43:46;4.70;;;1.48;;
38166;SDS011;23980;51.902;12.832;2022-09-03T07:48:57;6.03;;;1.60;;
38166;SDS011;23980;51.902;12.832;2022-09-03T07:53:59;5.82;;;1.83;;
38166;SDS011;23980;51.902;12.832;2022-09-03T07:59:01;4.38;;;1.52;;
38166;SDS011;23980;51.902;12.832;2022-09-03T08:04:03;5.38;;;1.35;;
38166;SDS011;23980;51.902;12.832;2022-09-03T08:09:16;5.47;;;2.35;;
38166;SDS011;23980;51.902;12.832;2022-09-03T08:14:18;3.05;;;1.27;;
38166;SDS011;23980;51.902;12.832;2022-09-03T08:19:26;4.15;;;1.58;;
38166;SDS011;23980;51.902;12.832;2022-09-03T08:24:26;3.72;;;1.42;;
38166;SDS011;23980;51.902;12.832;2022-09-03T08:29:28;3.90;;;1.45;;
38166;SDS011;23980;51.902;12.832;2022-09-03T08:34:28;3.97;;;1.20;;
38166;SDS011;23980;51.902;12.832;2022-09-03T08:39:30;3.40;;;1.92;;
38166;SDS011;23980;51.902;12.832;2022-09-03T09:11:22;4.10;;;0.98;;
38166;SDS011;23980;51.902;12.832;2022-09-03T09:16:43;5.15;;;1.27;;
38166;SDS011;23980;51.902;12.832;2022-09-03T09:22:10;4.82;;;0.90;;
38166;SDS011;23980;51.902;12.832;2022-09-03T09:27:17;3.15;;;0.90;;
38166;SDS011;23980;51.902;12.832;2022-09-03T09:32:19;5.38;;;1.13;;
38166;SDS011;23980;51.902;12.832;2022-09-03T09:37:22;8.57;;;1.17;;
38166;SDS011;23980;51.902;12.832;2022-09-03T09:42:25;5.15;;;1.13;;
38166;SDS011;23980;51.902;12.832;2022-09-03T09:47:33;5.07;;;1.30;;
38166;SDS011;23980;51.902;12.832;2022-09-03T09:52:36;8.85;;;1.52;;
38166;SDS011;23980;51.902;12.832;2022-09-03T09:57:38;5.80;;;1.13;;
38166;SDS011;23980;51.902;12.832;2022-09-03T10:02:46;3.35;;;1.65;;
38166;SDS011;23980;51.902;12.832;2022-09-03T10:07:57;5.57;;;1.48;;
38166;SDS011;23980;51.902;12.832;2022-09-03T10:13:09;2.50;;;0.95;;
38166;SDS011;23980;51.902;12.832;2022-09-03T10:18:15;8.77;;;1.48;;
38166;SDS011;23980;51.902;12.832;2022-09-03T10:28:55;2.75;;;1.25;;
38166;SDS011;23980;51.902;12.832;2022-09-03T10:39:12;3.72;;;1.40;;
38166;SDS011;23980;51.902;12.832;2022-09-03T10:44:27;6.43;;;1.70;;
38166;SDS011;23980;51.902;12.832;2022-09-03T10:49:53;8.40;;;1.70;;
38166;SDS011;23980;51.902;12.832;2022-09-03T11:00:15;2.75;;;1.42;;
38166;SDS011;23980;51.902;12.832;2022-09-03T11:10:25;4.90;;;1.98;;
38166;SDS011;23980;51.902;12.832;2022-09-03T11:15:32;10.00;;;1.92;;
38166;SDS011;23980;51.902;12.832;2022-09-03T11:20:36;4.67;;;1.53;;
38166;SDS011;23980;51.902;12.832;2022-09-03T11:25:40;3.40;;;1.65;;
38166;SDS011;23980;51.902;12.832;2022-09-03T11:35:58;4.78;;;1.48;;
38166;SDS011;23980;51.902;12.832;2022-09-03T11:46:28;5.60;;;2.05;;
38166;SDS011;23980;51.902;12.832;2022-09-03T11:51:33;3.75;;;1.92;;
38166;SDS011;23980;51.902;12.832;2022-09-03T11:56:38;5.55;;;1.77;;
38166;SDS011;23980;51.902;12.832;2022-09-03T12:01:52;6.80;;;2.08;;
38166;SDS011;23980;51.902;12.832;2022-09-03T12:12:48;8.05;;;2.35;;
38166;SDS011;23980;51.902;12.832;2022-09-03T12:22:49;4.95;;;1.83;;
38166;SDS011;23980;51.902;12.832;2022-09-03T12:27:56;18.08;;;2.88;;
38166;SDS011;23980;51.902;12.832;2022-09-03T12:33:06;14.38;;;2.17;;
38166;SDS011;23980;51.902;12.832;2022-09-03T12:38:11;9.70;;;2.22;;
38166;SDS011;23980;51.902;12.832;2022-09-03T12:43:14;6.35;;;2.35;;
38166;SDS011;23980;51.902;12.832;2022-09-03T12:48:17;6.10;;;1.60;;
38166;SDS011;23980;51.902;12.832;2022-09-03T12:53:21;8.25;;;2.10;;
38166;SDS011;23980;51.902;12.832;2022-09-03T12:58:24;10.30;;;1.95;;
38166;SDS011;23980;51.902;12.832;2022-09-03T13:03:43;6.20;;;2.10;;
38166;SDS011;23980;51.902;12.832;2022-09-03T13:08:46;4.90;;;1.95;;
38166;SDS011;23980;51.902;12.832;2022-09-03T13:30:21;7.70;;;2.33;;
38166;SDS011;23980;51.902;12.832;2022-09-03T13:35:33;5.20;;;1.98;;
38166;SDS011;23980;51.902;12.832;2022-09-03T13:40:40;5.05;;;1.92;;
38166;SDS011;23980;51.902;12.832;2022-09-03T13:50:53;8.88;;;2.08;;
38166;SDS011;23980;51.902;12.832;2022-09-03T13:56:03;8.50;;;2.85;;
38166;SDS011;23980;51.902;12.832;2022-09-03T14:01:15;8.93;;;2.17;;
38166;SDS011;23980;51.902;12.832;2022-09-03T14:12:13;7.78;;;1.92;;
38166;SDS011;23980;51.902;12.832;2022-09-03T14:17:16;9.18;;;2.33;;
38166;SDS011;23980;51.902;12.832;2022-09-03T14:22:23;10.75;;;2.28;;
38166;SDS011;23980;51.902;12.832;2022-09-03T14:27:29;6.72;;;2.03;;
38166;SDS011;23980;51.902;12.832;2022-09-03T14:32:34;5.07;;;1.40;;
38166;SDS011;23980;51.902;12.832;2022-09-03T14:59:12;4.07;;;1.95;;
38166;SDS011;23980;51.902;12.832;2022-09-03T15:10:31;7.15;;;2.10;;
38166;SDS011;23980;51.902;12.832;2022-09-03T15:20:53;4.75;;;2.35;;
38166;SDS011;23980;51.902;12.832;2022-09-03T15:31:42;8.63;;;2.10;;
38166;SDS011;23980;51.902;12.832;2022-09-03T15:36:51;6.70;;;2.08;;
38166;SDS011;23980;51.902;12.832;2022-09-03T15:41:56;6.30;;;2.60;;
38166;SDS011;23980;51.902;12.832;2022-09-03T16:07:54;5.05;;;2.15;;
38166;SDS011;23980;51.902;12.832;2022-09-03T16:13:18;5.13;;;2.10;;
38166;SDS011;23980;51.902;12.832;2022-09-03T16:18:41;4.45;;;2.08;;
38166;SDS011;23980;51.902;12.832;2022-09-03T16:29:23;9.73;;;2.03;;
38166;SDS011;23980;51.902;12.832;2022-09-03T16:34:40;8.45;;;2.30;;
38166;SDS011;23980;51.902;12.832;2022-09-03T16:50:12;7.55;;;2.70;;
38166;SDS011;23980;51.902;12.832;2022-09-03T17:22:36;6.93;;;2.25;;
38166;SDS011;23980;51.902;12.832;2022-09-03T17:50:17;4.32;;;1.92;;
38166;SDS011;23980;51.902;12.832;2022-09-03T17:55:38;6.95;;;2.42;;
38166;SDS011;23980;51.902;12.832;2022-09-03T18:06:03;5.90;;;2.20;;
38166;SDS011;23980;51.902;12.832;2022-09-03T18:11:13;5.47;;;1.70;;
38166;SDS011;23980;51.902;12.832;2022-09-03T18:21:50;6.72;;;2.17;;
38166;SDS011;23980;51.902;12.832;2022-09-03T18:32:44;9.73;;;2.60;;
38166;SDS011;23980;51.902;12.832;2022-09-03T18:38:03;8.60;;;2.58;;
38166;SDS011;23980;51.902;12.832;2022-09-03T18:49:26;10.93;;;2.78;;
38166;SDS011;23980;51.902;12.832;2022-09-03T19:00:47;7.63;;;2.80;;
38166;SDS011;23980;51.902;12.832;2022-09-03T19:06:22;9.68;;;2.38;;
38166;SDS011;23980;51.902;12.832;2022-09-03T19:12:37;8.35;;;2.55;;
38166;SDS011;23980;51.902;12.832;2022-09-03T19:17:53;18.13;;;2.50;;
38166;SDS011;23980;51.902;12.832;2022-09-03T19:23:15;5.20;;;2.55;;
38166;SDS011;23980;51.902;12.832;2022-09-03T19:28:37;4.57;;;2.33;;
38166;SDS011;23980;51.902;12.832;2022-09-03T19:46:01;8.00;;;2.78;;
38166;SDS011;23980;51.902;12.832;2022-09-03T19:51:44;7.05;;;2.42;;
38166;SDS011;23980;51.902;12.832;2022-09-03T19:57:13;8.15;;;2.47;;
38166;SDS011;23980;51.902;12.832;2022-09-03T20:02:35;8.02;;;2.58;;
38166;SDS011;23980;51.902;12.832;2022-09-03T20:08:02;7.90;;;2.55;;
38166;SDS011;23980;51.902;12.832;2022-09-03T20:13:23;10.50;;;2.63;;
38166;SDS011;23980;51.902;12.832;2022-09-03T20:29:34;6.32;;;2.13;;
38166;SDS011;23980;51.902;12.832;2022-09-03T20:45:49;5.57;;;2.75;;
38166;SDS011;23980;51.902;12.832;2022-09-03T20:51:00;6.05;;;2.85;;
38166;SDS011;23980;51.902;12.832;2022-09-03T20:56:19;9.07;;;2.85;;
38166;SDS011;23980;51.902;12.832;2022-09-03T21:01:29;5.32;;;2.90;;
38166;SDS011;23980;51.902;12.832;2022-09-03T21:17:47;7.10;;;2.75;;
38166;SDS011;23980;51.902;12.832;2022-09-03T21:22:59;11.98;;;3.42;;
38166;SDS011;23980;51.902;12.832;2022-09-03T21:33:32;9.07;;;2.75;;
38166;SDS011;23980;51.902;12.832;2022-09-03T21:38:38;9.90;;;2.65;;
38166;SDS011;23980;51.902;12.832;2022-09-03T21:43:49;7.43;;;2.97;;
38166;SDS011;23980;51.902;12.832;2022-09-03T21:48:58;7.22;;;3.40;;
38166;SDS011;23980;51.902;12.832;2022-09-03T22:04:49;6.87;;;3.40;;
38166;SDS011;23980;51.902;12.832;2022-09-03T22:15:31;8.15;;;3.05;;
38166;SDS011;23980;51.902;12.832;2022-09-03T22:20:39;8.45;;;3.28;;
38166;SDS011;23980;51.902;12.832;2022-09-03T22:25:58;4.95;;;2.75;;
38166;SDS011;23980;51.902;12.832;2022-09-03T22:58:44;9.25;;;3.35;;
38166;SDS011;23980;51.902;12.832;2022-09-03T23:09:33;6.43;;;3.50;;
38166;SDS011;23980;51.902;12.832;2022-09-03T23:25:34;10.53;;;3.17;;
38166;SDS011;23980;51.902;12.832;2022-09-03T23:30:31;9.35;;;3.40;;
38166;SDS011;23980;51.902;12.832;2022-09-03T23:35:36;6.95;;;3.85;;
38166;SDS011;23980;51.902;12.832;2022-09-03T23:40:48;6.28;;;3.78;;
38166;SDS011;23980;51.902;12.832;2022-09-03T23:46:00;9.52;;;3.88;;
38166;SDS011;23980;51.902;12.832;2022-09-03T23:51:19;14.52;;;3.85;;
